createdAt,value
2023-04-15T00:00:00.208Z,3.17
2023-04-15T00:02:29.604Z,2.72
2023-04-15T00:04:57.445Z,3.10
2023-04-15T00:07:25.211Z,3.25
2023-04-15T00:09:55.207Z,2.92
2023-04-15T00:12:23.021Z,3.00
2023-04-15T00:14:51.147Z,3.03
2023-04-15T00:17:19.281Z,2.92
2023-04-15T00:19:48.485Z,3.15
2023-04-15T00:22:16.302Z,4.15
2023-04-15T00:24:44.170Z,3.33
2023-04-15T00:27:12.514Z,3.30
2023-04-15T00:29:40.275Z,3.05
2023-04-15T00:32:09.261Z,2.92
2023-04-15T00:34:37.304Z,3.40
2023-04-15T00:37:06.412Z,3.60
2023-04-15T00:39:34.190Z,3.83
2023-04-15T00:42:02.423Z,3.53
2023-04-15T00:44:30.172Z,3.60
2023-04-15T00:46:58.657Z,3.10
2023-04-15T00:49:27.169Z,3.25
2023-04-15T00:51:54.920Z,3.42
2023-04-15T00:54:24.100Z,3.92
2023-04-15T00:56:52.000Z,3.70
2023-04-15T00:59:19.907Z,3.42
2023-04-15T01:01:48.517Z,3.15
2023-04-15T01:04:17.299Z,3.28
2023-04-15T01:06:45.241Z,3.53
2023-04-15T01:09:13.128Z,4.45
2023-04-15T01:11:42.359Z,3.42
2023-04-15T01:14:10.852Z,3.40
2023-04-15T01:16:39.917Z,4.03
2023-04-15T01:19:09.808Z,4.05
2023-04-15T01:21:38.594Z,3.55
2023-04-15T01:24:11.031Z,3.80
2023-04-15T01:26:43.044Z,3.75
2023-04-15T01:29:12.022Z,4.53
2023-04-15T01:31:40.176Z,3.80
2023-04-15T01:34:10.413Z,3.65
2023-04-15T01:36:38.167Z,4.22
2023-04-15T01:39:06.644Z,4.00
2023-04-15T01:41:34.409Z,3.90
2023-04-15T01:44:03.586Z,4.78
2023-04-15T01:46:31.395Z,3.75
2023-04-15T01:48:59.500Z,4.22
2023-04-15T01:51:27.742Z,5.40
2023-04-15T01:53:56.898Z,4.00
2023-04-15T01:56:25.415Z,4.22
2023-04-15T01:58:53.398Z,4.82
2023-04-15T02:01:22.724Z,4.78
2023-04-15T02:03:50.713Z,4.40
2023-04-15T02:06:21.057Z,4.60
2023-04-15T02:08:48.849Z,4.80
2023-04-15T02:11:16.649Z,4.45
2023-04-15T02:13:44.556Z,4.40
2023-04-15T02:16:18.820Z,4.15
2023-04-15T02:18:48.305Z,4.32
2023-04-15T02:21:16.203Z,4.50
2023-04-15T02:23:44.092Z,4.80
2023-04-15T02:26:11.926Z,4.60
2023-04-15T02:28:39.714Z,4.10
2023-04-15T02:31:08.235Z,5.40
2023-04-15T02:33:37.010Z,5.10
2023-04-15T02:36:07.576Z,4.63
2023-04-15T02:38:35.373Z,4.82
2023-04-15T02:41:03.260Z,5.32
2023-04-15T02:43:31.074Z,4.45
2023-04-15T02:45:58.973Z,4.25
2023-04-15T02:48:27.031Z,4.80
2023-04-15T02:50:54.801Z,5.03
2023-04-15T02:53:23.956Z,4.88
2023-04-15T02:55:51.687Z,5.15
2023-04-15T02:58:19.624Z,5.35
2023-04-15T03:00:47.424Z,4.95
2023-04-15T03:03:15.647Z,4.55
2023-04-15T03:06:13.698Z,5.07
2023-04-15T03:08:45.917Z,5.28
2023-04-15T03:12:02.129Z,5.50
2023-04-15T03:14:29.898Z,4.68
2023-04-15T03:17:44.660Z,5.47
2023-04-15T03:20:12.521Z,5.03
2023-04-15T03:22:41.965Z,5.80
2023-04-15T03:25:11.475Z,5.40
2023-04-15T03:27:57.171Z,5.30
2023-04-15T03:30:38.572Z,5.28
2023-04-15T03:33:34.705Z,5.45
2023-04-15T03:36:02.490Z,5.45
2023-04-15T03:38:30.282Z,5.20
2023-04-15T03:40:59.597Z,5.53
2023-04-15T03:43:49.825Z,4.88
2023-04-15T03:46:17.766Z,5.35
2023-04-15T03:48:46.503Z,4.93
2023-04-15T03:51:14.267Z,5.45
2023-04-15T03:53:42.108Z,5.28
2023-04-15T03:56:11.364Z,5.25
2023-04-15T03:58:46.732Z,5.20
2023-04-15T04:01:15.012Z,5.38
2023-04-15T04:03:45.812Z,5.50
2023-04-15T04:06:13.844Z,5.78
2023-04-15T04:08:41.680Z,5.85
2023-04-15T04:11:10.939Z,5.38
2023-04-15T04:13:38.826Z,6.55
2023-04-15T04:16:07.345Z,5.32
2023-04-15T04:18:35.406Z,5.55
2023-04-15T04:21:03.409Z,6.03
2023-04-15T04:23:31.443Z,5.63
2023-04-15T04:25:59.258Z,5.80
2023-04-15T04:28:28.554Z,6.10
2023-04-15T04:30:57.032Z,6.00
2023-04-15T04:33:24.894Z,7.68
2023-04-15T04:35:55.616Z,6.38
2023-04-15T04:38:23.418Z,6.20
2023-04-15T04:40:51.295Z,6.13
2023-04-15T04:43:19.262Z,6.88
2023-04-15T04:45:48.471Z,7.72
2023-04-15T04:48:17.038Z,6.03
2023-04-15T04:50:47.026Z,6.70
2023-04-15T04:53:14.863Z,6.10
2023-04-15T04:55:42.770Z,6.35
2023-04-15T04:58:10.682Z,5.80
2023-04-15T05:00:38.965Z,6.13
2023-04-15T05:03:08.470Z,6.30
2023-04-15T05:05:37.017Z,5.60
2023-04-15T05:08:04.920Z,6.50
2023-04-15T05:10:32.812Z,6.22
2023-04-15T05:13:00.658Z,5.75
2023-04-15T05:15:28.483Z,5.82
2023-04-15T05:17:56.433Z,6.28
2023-04-15T05:20:25.936Z,6.05
2023-04-15T05:22:53.814Z,6.45
2023-04-15T05:25:21.608Z,6.15
2023-04-15T05:27:49.365Z,7.47
2023-04-15T05:30:17.132Z,6.38
2023-04-15T05:32:45.021Z,6.13
2023-04-15T05:35:12.857Z,6.72
2023-04-15T05:37:42.066Z,6.35
2023-04-15T05:40:10.658Z,6.57
2023-04-15T05:42:38.740Z,6.65
2023-04-15T05:45:09.319Z,6.78
2023-04-15T05:47:37.380Z,6.25
2023-04-15T05:50:06.676Z,6.57
2023-04-15T05:52:34.618Z,6.40
2023-04-15T05:55:03.885Z,6.15
2023-04-15T05:57:31.663Z,6.65
2023-04-15T05:59:59.488Z,6.80
2023-04-15T06:02:28.019Z,6.70
2023-04-15T06:04:55.991Z,7.13
2023-04-15T06:07:23.874Z,5.93
2023-04-15T06:09:51.676Z,6.68
2023-04-15T06:12:20.826Z,7.38
2023-04-15T06:14:48.646Z,6.85
2023-04-15T06:17:18.583Z,7.18
2023-04-15T06:19:46.437Z,7.80
2023-04-15T06:22:14.259Z,8.25
2023-04-15T06:24:42.151Z,9.13
2023-04-15T06:27:09.950Z,7.00
2023-04-15T06:29:39.283Z,7.57
2023-04-15T06:32:07.792Z,7.63
2023-04-15T06:34:35.615Z,7.78
2023-04-15T06:37:05.100Z,6.75
2023-04-15T06:39:34.181Z,7.50
2023-04-15T06:42:02.057Z,7.78
2023-04-15T06:44:32.635Z,7.13
2023-04-15T06:47:03.046Z,7.13
2023-04-15T06:49:30.970Z,7.05
2023-04-15T06:51:58.739Z,7.43
2023-04-15T06:54:26.625Z,6.55
2023-04-15T06:56:54.536Z,6.90
2023-04-15T06:59:25.301Z,7.10
2023-04-15T07:01:55.299Z,7.57
2023-04-15T07:04:24.632Z,7.80
2023-04-15T07:06:52.504Z,7.78
2023-04-15T07:09:20.705Z,6.97
2023-04-15T07:11:48.863Z,7.13
2023-04-15T07:14:16.742Z,7.20
2023-04-15T07:16:44.573Z,7.43
2023-04-15T07:19:12.769Z,6.85
2023-04-15T07:21:42.344Z,6.55
2023-04-15T07:24:10.581Z,6.68
2023-04-15T07:26:40.517Z,6.90
2023-04-15T07:29:08.319Z,7.13
2023-04-15T07:31:36.853Z,7.78
2023-04-15T07:34:05.186Z,6.60
2023-04-15T07:36:33.028Z,6.63
2023-04-15T07:39:03.962Z,6.50
2023-04-15T07:41:32.111Z,7.15
2023-04-15T07:44:01.342Z,6.40
2023-04-15T07:46:29.347Z,6.93
2023-04-15T07:49:00.311Z,6.55
2023-04-15T07:51:29.331Z,6.68
2023-04-15T07:54:00.782Z,6.95
2023-04-15T07:56:32.637Z,6.72
2023-04-15T07:59:02.345Z,6.32
2023-04-15T08:01:30.682Z,5.57
2023-04-15T08:03:58.893Z,5.85
2023-04-15T08:06:27.411Z,6.13
2023-04-15T08:08:55.666Z,5.82
2023-04-15T08:11:24.550Z,5.53
2023-04-15T08:13:53.744Z,5.57
2023-04-15T08:16:26.888Z,5.75
2023-04-15T08:18:56.452Z,4.82
2023-04-15T08:21:25.044Z,4.95
2023-04-15T08:24:02.041Z,4.38
2023-04-15T08:26:29.877Z,4.78
2023-04-15T08:28:59.589Z,5.20
2023-04-15T08:31:31.642Z,4.65
2023-04-15T08:34:01.819Z,5.25
2023-04-15T08:36:29.645Z,5.00
2023-04-15T08:38:57.515Z,4.70
2023-04-15T08:41:26.477Z,5.47
2023-04-15T08:43:57.937Z,5.63
2023-04-15T08:46:45.360Z,5.10
2023-04-15T08:49:13.704Z,4.57
2023-04-15T08:51:42.392Z,5.00
2023-04-15T08:54:10.631Z,5.30
2023-04-15T08:56:40.806Z,5.55
2023-04-15T08:59:12.529Z,5.40
2023-04-15T09:01:42.163Z,5.80
2023-04-15T09:04:10.475Z,5.63
2023-04-15T09:06:38.315Z,5.63
2023-04-15T09:09:06.111Z,5.28
2023-04-15T09:11:36.279Z,4.50
2023-04-15T09:14:04.033Z,4.75
2023-04-15T09:16:32.585Z,4.70
2023-04-15T09:19:02.153Z,3.65
2023-04-15T09:21:33.902Z,3.80
2023-04-15T09:24:05.879Z,4.28
2023-04-15T09:26:40.287Z,3.53
2023-04-15T09:29:09.747Z,4.03
2023-04-15T09:31:38.543Z,3.85
2023-04-15T09:34:26.205Z,3.83
2023-04-15T09:36:56.883Z,3.67
2023-04-15T09:39:25.102Z,3.35
2023-04-15T09:42:08.883Z,3.63
2023-04-15T09:44:36.722Z,3.63
2023-04-15T09:47:04.505Z,4.00
2023-04-15T09:49:38.713Z,4.55
2023-04-15T09:52:06.842Z,4.32
2023-04-15T09:54:36.447Z,4.25
2023-04-15T09:57:09.057Z,5.10
2023-04-15T09:59:42.190Z,3.67
2023-04-15T10:02:11.551Z,3.40
2023-04-15T10:04:42.336Z,2.58
2023-04-15T10:07:15.193Z,2.70
2023-04-15T10:09:47.407Z,2.60
2023-04-15T10:12:18.646Z,2.63
2023-04-15T10:14:53.431Z,2.42
2023-04-15T10:17:24.188Z,2.17
2023-04-15T10:19:58.101Z,2.85
2023-04-15T10:24:55.729Z,5.15
2023-04-15T10:27:24.007Z,3.65
2023-04-15T10:29:52.614Z,3.60
2023-04-15T10:32:28.701Z,3.38
2023-04-15T10:34:58.528Z,3.30
2023-04-15T10:37:36.056Z,3.20
2023-04-15T10:40:26.086Z,2.70
2023-04-15T10:42:54.547Z,2.33
2023-04-15T10:45:22.415Z,1.98
2023-04-15T10:47:55.151Z,2.80
2023-04-15T10:50:27.838Z,2.03
2023-04-15T10:52:58.594Z,1.70
2023-04-15T10:55:34.093Z,1.60
2023-04-15T10:58:03.283Z,1.23
2023-04-15T11:00:32.574Z,2.10
2023-04-15T11:03:06.284Z,2.20
2023-04-15T11:09:07.975Z,2.13
2023-04-15T11:12:12.171Z,2.65
2023-04-15T11:14:43.739Z,2.53
2023-04-15T11:17:16.336Z,2.58
2023-04-15T11:19:44.663Z,3.20
2023-04-15T11:22:13.068Z,3.50
2023-04-15T11:24:50.660Z,2.80
2023-04-15T11:27:26.554Z,2.85
2023-04-15T11:29:54.464Z,3.13
2023-04-15T11:32:23.126Z,5.40
2023-04-15T11:34:52.921Z,3.40
2023-04-15T11:37:29.678Z,3.60
2023-04-15T11:39:58.952Z,3.30
2023-04-15T11:42:31.572Z,4.90
2023-04-15T11:45:15.756Z,3.42
2023-04-15T11:47:44.554Z,3.55
2023-04-15T11:50:16.641Z,3.60
2023-04-15T11:52:54.168Z,3.17
2023-04-15T11:55:24.987Z,3.60
2023-04-15T11:58:08.221Z,3.78
2023-04-15T12:00:41.150Z,3.37
2023-04-15T12:03:16.127Z,3.50
2023-04-15T12:06:06.109Z,3.03
2023-04-15T12:08:50.102Z,3.05
2023-04-15T12:11:21.640Z,3.88
2023-04-15T12:13:51.498Z,3.08
2023-04-15T12:16:24.730Z,3.20
2023-04-15T12:18:53.440Z,3.08
2023-04-15T12:21:21.815Z,2.95
2023-04-15T12:23:50.904Z,3.28
2023-04-15T12:26:42.394Z,2.40
2023-04-15T12:29:11.635Z,2.50
2023-04-15T12:31:48.496Z,2.30
2023-04-15T12:34:18.953Z,2.55
2023-04-15T12:36:46.914Z,2.67
2023-04-15T12:39:14.911Z,2.20
2023-04-15T12:41:44.924Z,2.20
2023-04-15T12:44:12.761Z,2.90
2023-04-15T12:46:41.536Z,2.33
2023-04-15T12:49:14.678Z,2.40
2023-04-15T12:51:44.989Z,2.50
2023-04-15T12:54:16.697Z,2.38
2023-04-15T12:56:46.439Z,2.42
2023-04-15T12:59:14.278Z,2.33
2023-04-15T13:01:44.053Z,2.25
2023-04-15T13:04:12.327Z,2.40
2023-04-15T13:06:40.257Z,2.15
2023-04-15T13:09:08.181Z,2.20
2023-04-15T13:11:36.532Z,2.47
2023-04-15T13:14:07.004Z,2.10
2023-04-15T13:16:35.985Z,1.92
2023-04-15T13:19:08.051Z,1.83
2023-04-15T13:21:36.511Z,1.63
2023-04-15T13:24:07.269Z,1.88
2023-04-15T13:26:36.049Z,1.40
2023-04-15T13:29:05.187Z,1.70
2023-04-15T13:31:33.025Z,1.45
2023-04-15T13:34:00.936Z,1.40
2023-04-15T13:36:28.777Z,1.75
2023-04-15T13:38:57.005Z,1.58
2023-04-15T13:41:24.820Z,1.73
2023-04-15T13:43:54.329Z,1.45
2023-04-15T13:46:23.573Z,1.50
2023-04-15T13:48:51.393Z,1.67
2023-04-15T13:51:19.251Z,1.52
2023-04-15T13:53:47.080Z,1.50
2023-04-15T13:56:14.905Z,1.50
2023-04-15T13:58:42.777Z,1.27
2023-04-15T14:01:10.895Z,1.40
2023-04-15T14:03:40.408Z,1.50
2023-04-15T14:06:15.729Z,1.58
2023-04-15T14:08:43.785Z,1.30
2023-04-15T14:11:11.764Z,1.90
2023-04-15T14:13:40.708Z,1.60
2023-04-15T14:16:13.278Z,1.48
2023-04-15T14:18:42.700Z,1.70
2023-04-15T14:21:10.494Z,1.60
2023-04-15T14:23:38.382Z,1.60
2023-04-15T14:26:06.560Z,1.90
2023-04-15T14:28:34.391Z,1.50
2023-04-15T14:31:02.574Z,1.92
2023-04-15T14:33:30.441Z,1.17
2023-04-15T14:35:59.627Z,0.93
2023-04-15T14:38:27.730Z,1.23
2023-04-15T14:40:55.499Z,1.40
2023-04-15T14:43:23.249Z,1.38
2023-04-15T14:45:51.993Z,1.20
2023-04-15T14:48:23.024Z,1.10
2023-04-15T14:50:50.865Z,1.48
2023-04-15T14:53:21.683Z,1.00
2023-04-15T14:55:49.634Z,1.17
2023-04-15T14:58:17.614Z,1.00
2023-04-15T15:00:45.504Z,1.23
2023-04-15T15:03:14.756Z,1.45
2023-04-15T15:05:43.632Z,1.17
2023-04-15T15:08:11.849Z,1.50
2023-04-15T15:10:48.692Z,1.10
2023-04-15T15:13:21.054Z,1.08
2023-04-15T15:15:50.225Z,1.30
2023-04-15T15:18:21.562Z,1.75
2023-04-15T15:20:49.505Z,1.33
2023-04-15T15:23:17.521Z,1.35
2023-04-15T15:25:47.298Z,1.30
2023-04-15T15:28:15.319Z,1.33
2023-04-15T15:30:43.214Z,1.38
2023-04-15T15:33:13.922Z,1.20
2023-04-15T15:35:42.073Z,1.20
2023-04-15T15:38:12.261Z,1.00
2023-04-15T15:40:40.162Z,1.20
2023-04-15T15:43:09.422Z,1.45
2023-04-15T15:45:37.246Z,1.20
2023-04-15T15:48:06.574Z,1.48
2023-04-15T15:50:35.065Z,1.83
2023-04-15T15:53:02.909Z,1.30
2023-04-15T15:55:30.707Z,1.48
2023-04-15T15:57:58.462Z,1.80
2023-04-15T16:00:27.623Z,1.23
2023-04-15T16:03:06.591Z,1.70
2023-04-15T16:05:34.829Z,1.20
2023-04-15T16:08:02.635Z,1.65
2023-04-15T16:10:30.675Z,1.35
2023-04-15T16:12:58.493Z,1.60
2023-04-15T16:15:27.655Z,1.48
2023-04-15T16:17:55.526Z,1.75
2023-04-15T16:20:23.431Z,1.70
2023-04-15T16:22:51.273Z,1.58
2023-04-15T16:25:19.582Z,1.50
2023-04-15T16:28:00.758Z,1.67
2023-04-15T16:30:30.513Z,1.42
2023-04-15T16:32:58.439Z,1.60
2023-04-15T16:35:26.277Z,1.95
2023-04-15T16:37:54.002Z,1.42
2023-04-15T16:40:22.055Z,2.65
2023-04-15T16:42:50.637Z,2.40
2023-04-15T16:45:20.537Z,1.45
2023-04-15T16:47:49.788Z,1.80
2023-04-15T16:50:17.844Z,1.60
2023-04-15T16:52:45.666Z,1.65
2023-04-15T16:55:13.473Z,2.30
2023-04-15T16:58:02.968Z,1.98
2023-04-15T17:00:29.697Z,1.50
2023-04-15T17:02:59.066Z,1.30
2023-04-15T17:05:27.990Z,1.48
2023-04-15T17:07:55.934Z,1.52
2023-04-15T17:10:23.894Z,1.80
2023-04-15T17:12:52.623Z,2.55
2023-04-15T17:15:21.415Z,1.80
2023-04-15T17:17:49.269Z,1.50
2023-04-15T17:20:18.662Z,1.55
2023-04-15T17:22:46.620Z,1.40
2023-04-15T17:25:14.746Z,1.63
2023-04-15T17:27:42.725Z,1.90
2023-04-15T17:30:11.714Z,2.75
2023-04-15T17:32:40.140Z,1.52
2023-04-15T17:35:09.178Z,2.13
2023-04-15T17:37:38.488Z,2.22
2023-04-15T17:40:08.768Z,1.73
2023-04-15T17:42:36.853Z,1.60
2023-04-15T17:45:04.953Z,2.45
2023-04-15T17:47:33.018Z,1.88
2023-04-15T17:50:00.881Z,1.67
2023-04-15T17:52:28.937Z,1.55
2023-04-15T17:54:58.032Z,1.58
2023-04-15T17:57:26.228Z,1.70
2023-04-15T17:59:54.101Z,2.05
2023-04-15T18:02:21.970Z,2.38
2023-04-15T18:04:49.975Z,2.08
2023-04-15T18:07:18.084Z,1.67
2023-04-15T18:09:46.214Z,1.75
2023-04-15T18:12:15.330Z,2.80
2023-04-15T18:15:09.726Z,1.70
2023-04-15T18:20:32.392Z,2.08
2023-04-15T18:23:19.734Z,3.15
2023-04-15T18:25:51.983Z,2.08
2023-04-15T18:28:39.259Z,2.25
2023-04-15T18:31:24.335Z,2.25
2023-04-15T18:33:52.202Z,2.22
2023-04-15T18:36:20.328Z,2.47
2023-04-15T18:38:48.120Z,1.55
2023-04-15T18:41:15.997Z,2.67
2023-04-15T18:43:45.160Z,2.28
2023-04-15T18:46:13.767Z,3.13
2023-04-15T18:48:41.848Z,2.47
2023-04-15T18:51:09.796Z,2.00
2023-04-15T18:53:37.582Z,1.88
2023-04-15T18:56:05.595Z,2.00
2023-04-15T18:59:09.991Z,2.92
2023-04-15T19:01:25.490Z,3.47
2023-04-15T19:03:53.474Z,1.58
2023-04-15T19:06:22.296Z,1.40
2023-04-15T19:08:50.111Z,1.75
2023-04-15T19:11:17.904Z,1.58
2023-04-15T19:13:46.269Z,1.83
2023-04-15T19:16:14.351Z,2.40
2023-04-15T19:18:46.949Z,1.52
2023-04-15T19:21:14.879Z,1.80
2023-04-15T19:23:43.847Z,1.83
2023-04-15T19:26:13.062Z,2.20
2023-04-15T19:28:41.325Z,1.90
2023-04-15T19:31:09.934Z,1.25
2023-04-15T19:33:37.931Z,1.92
2023-04-15T19:36:08.462Z,1.60
2023-04-15T19:38:37.340Z,1.52
2023-04-15T19:41:05.921Z,1.90
2023-04-15T19:43:34.508Z,3.03
2023-04-15T19:46:02.909Z,2.15
2023-04-15T19:48:30.903Z,2.08
2023-04-15T19:50:59.837Z,2.22
2023-04-15T19:53:29.156Z,2.00
2023-04-15T19:55:58.775Z,2.25
2023-04-15T19:58:26.660Z,2.78
2023-04-15T20:00:54.538Z,2.00
2023-04-15T20:03:22.578Z,1.55
2023-04-15T20:05:50.639Z,1.90
2023-04-15T20:08:18.503Z,2.05
2023-04-15T20:10:47.739Z,1.65
2023-04-15T20:13:16.282Z,1.70
2023-04-15T20:15:44.921Z,1.70
2023-04-15T20:18:12.744Z,2.30
2023-04-15T20:20:41.476Z,1.85
2023-04-15T20:23:09.421Z,1.95
2023-04-15T20:25:37.248Z,1.70
2023-04-15T20:28:06.485Z,1.92
2023-04-15T20:30:34.498Z,1.58
2023-04-15T20:33:07.552Z,1.65
2023-04-15T20:35:35.466Z,1.40
2023-04-15T20:38:04.590Z,1.30
2023-04-15T20:40:33.665Z,1.20
2023-04-15T20:43:04.685Z,1.67
2023-04-15T20:45:34.340Z,2.13
2023-04-15T20:48:02.691Z,1.48
2023-04-15T20:50:30.790Z,1.70
2023-04-15T20:52:58.816Z,2.47
2023-04-15T20:55:28.324Z,1.40
2023-04-15T20:57:58.373Z,1.58
2023-04-15T21:00:26.202Z,2.47
2023-04-15T21:02:57.878Z,2.50
2023-04-15T21:05:25.836Z,3.47
2023-04-15T21:07:54.497Z,4.72
2023-04-15T21:10:22.586Z,7.28
2023-04-15T21:12:50.549Z,3.08
2023-04-15T21:15:18.591Z,1.70
2023-04-15T21:17:46.449Z,1.63
2023-04-15T21:20:18.925Z,1.60
2023-04-15T21:22:46.977Z,1.30
2023-04-15T21:25:15.129Z,1.70
2023-04-15T21:27:43.324Z,2.58
2023-04-15T21:30:12.745Z,1.83
2023-04-15T21:32:43.333Z,1.90
2023-04-15T21:35:11.382Z,1.40
2023-04-15T21:37:43.368Z,2.35
2023-04-15T21:40:11.811Z,1.65
2023-04-15T21:42:39.817Z,1.63
2023-04-15T21:45:08.895Z,6.95
2023-04-15T21:48:06.776Z,1.45
2023-04-15T21:50:25.161Z,1.92
2023-04-15T21:52:54.548Z,1.60
2023-04-15T21:55:25.739Z,1.60
2023-04-15T21:57:53.928Z,1.48
2023-04-15T22:00:23.188Z,1.90
2023-04-15T22:02:51.267Z,1.30
2023-04-15T22:05:19.549Z,1.35
2023-04-15T22:07:50.704Z,2.08
2023-04-15T22:10:23.056Z,1.38
2023-04-15T22:12:51.156Z,1.10
2023-04-15T22:15:19.324Z,1.83
2023-04-15T22:17:47.565Z,1.80
2023-04-15T22:20:15.737Z,1.88
2023-04-15T22:22:44.843Z,2.13
2023-04-15T22:25:13.148Z,1.95
2023-04-15T22:27:42.875Z,1.60
2023-04-15T22:30:11.885Z,2.42
2023-04-15T22:32:40.182Z,2.33
2023-04-15T22:35:11.195Z,1.38
2023-04-15T22:37:42.334Z,2.92
2023-04-15T22:40:11.413Z,1.70
2023-04-15T22:42:39.517Z,1.63
2023-04-15T22:45:10.819Z,2.08
2023-04-15T22:47:39.120Z,2.25
2023-04-15T22:50:08.650Z,1.85
2023-04-15T22:52:36.796Z,1.88
2023-04-15T22:55:05.493Z,2.35
2023-04-15T22:57:33.657Z,2.05
2023-04-15T23:00:01.662Z,2.42
2023-04-15T23:02:31.195Z,2.00
2023-04-15T23:04:59.226Z,3.03
2023-04-15T23:07:29.638Z,2.05
2023-04-15T23:09:58.151Z,1.90
2023-04-15T23:12:26.212Z,1.85
2023-04-15T23:14:54.147Z,1.60
2023-04-15T23:17:22.074Z,1.58
2023-04-15T23:19:51.718Z,2.58
2023-04-15T23:22:20.107Z,2.25
2023-04-15T23:24:48.093Z,2.45
2023-04-15T23:27:17.693Z,2.08
2023-04-15T23:29:46.110Z,2.45
2023-04-15T23:32:13.982Z,3.55
2023-04-15T23:34:41.791Z,2.47
2023-04-15T23:37:11.431Z,2.15
2023-04-15T23:39:39.250Z,3.13
2023-04-15T23:42:07.344Z,2.42
2023-04-15T23:44:35.114Z,2.95
2023-04-15T23:47:02.891Z,2.95
2023-04-15T23:49:30.600Z,2.70
2023-04-15T23:51:58.485Z,2.58
2023-04-15T23:54:27.592Z,3.13
2023-04-15T23:56:55.614Z,3.58
2023-04-15T23:59:23.365Z,2.95
